sensor_id;sensor_type;location;lat;lon;timestamp;pressure;altitude;pressure_sealevel;temperature;humidity
44044;BME280;29709;52.396;16.796;2023-02-12T00:02:26;103197.46;;;6.65;87.25
44044;BME280;29709;52.396;16.796;2023-02-12T00:05:30;103209.55;;;6.61;87.31
44044;BME280;29709;52.396;16.796;2023-02-12T00:08:34;103200.70;;;6.56;87.69
44044;BME280;29709;52.396;16.796;2023-02-12T00:11:38;103203.38;;;6.58;87.58
44044;BME280;29709;52.396;16.796;2023-02-12T00:14:48;103216.77;;;6.62;88.12
44044;BME280;29709;52.396;16.796;2023-02-12T00:17:59;103221.27;;;6.63;87.35
44044;BME280;29709;52.396;16.796;2023-02-12T00:21:37;103223.02;;;6.64;87.53
44044;BME280;29709;52.396;16.796;2023-02-12T00:24:45;103232.99;;;6.65;87.71
44044;BME280;29709;52.396;16.796;2023-02-12T00:27:55;103241.04;;;6.69;87.42
44044;BME280;29709;52.396;16.796;2023-02-12T00:31:07;103245.68;;;6.66;87.98
44044;BME280;29709;52.396;16.796;2023-02-12T00:34:11;103248.68;;;6.62;87.99
44044;BME280;29709;52.396;16.796;2023-02-12T00:37:14;103249.82;;;6.58;88.35
44044;BME280;29709;52.396;16.796;2023-02-12T00:40:18;103249.82;;;6.58;88.39
44044;BME280;29709;52.396;16.796;2023-02-12T00:43:49;103261.28;;;6.64;88.40
44044;BME280;29709;52.396;16.796;2023-02-12T00:46:53;103254.71;;;6.69;88.43
44044;BME280;29709;52.396;16.796;2023-02-12T00:49:56;103270.42;;;6.81;88.54
44044;BME280;29709;52.396;16.796;2023-02-12T00:53:01;103270.46;;;6.97;88.30
44044;BME280;29709;52.396;16.796;2023-02-12T00:56:06;103286.12;;;7.10;87.70
44044;BME280;29709;52.396;16.796;2023-02-12T00:59:11;103284.27;;;7.11;87.21
44044;BME280;29709;52.396;16.796;2023-02-12T01:02:16;103284.98;;;7.14;87.15
44044;BME280;29709;52.396;16.796;2023-02-12T01:05:21;103282.41;;;7.11;86.88
44044;BME280;29709;52.396;16.796;2023-02-12T01:08:55;103298.65;;;7.14;86.89
44044;BME280;29709;52.396;16.796;2023-02-12T01:11:58;103294.32;;;7.10;87.24
44044;BME280;29709;52.396;16.796;2023-02-12T01:15:02;103306.05;;;7.12;86.95
44044;BME280;29709;52.396;16.796;2023-02-12T01:18:07;103312.32;;;7.14;86.57
44044;BME280;29709;52.396;16.796;2023-02-12T01:21:20;103317.32;;;7.06;86.68
44044;BME280;29709;52.396;16.796;2023-02-12T01:24:24;103324.55;;;7.07;86.74
44044;BME280;29709;52.396;16.796;2023-02-12T01:27:27;103324.05;;;7.16;86.75
44044;BME280;29709;52.396;16.796;2023-02-12T01:30:30;103329.60;;;7.15;86.23
44044;BME280;29709;52.396;16.796;2023-02-12T01:34:01;103334.16;;;6.99;86.51
44044;BME280;29709;52.396;16.796;2023-02-12T01:37:04;103335.77;;;6.85;86.85
44044;BME280;29709;52.396;16.796;2023-02-12T01:40:10;103341.49;;;6.81;87.63
44044;BME280;29709;52.396;16.796;2023-02-12T01:43:17;103335.48;;;6.74;88.30
44044;BME280;29709;52.396;16.796;2023-02-12T01:46:20;103341.49;;;6.81;88.23
44044;BME280;29709;52.396;16.796;2023-02-12T01:52:43;103348.16;;;6.92;88.23
44044;BME280;29709;52.396;16.796;2023-02-12T01:56:14;103344.19;;;6.98;87.90
44044;BME280;29709;52.396;16.796;2023-02-12T01:59:19;103349.43;;;7.03;87.45
44044;BME280;29709;52.396;16.796;2023-02-12T02:02:23;103352.91;;;6.89;87.28
44044;BME280;29709;52.396;16.796;2023-02-12T02:05:34;103350.59;;;6.81;87.84
44044;BME280;29709;52.396;16.796;2023-02-12T02:08:39;103352.43;;;6.81;87.70
44044;BME280;29709;52.396;16.796;2023-02-12T02:11:43;103356.14;;;6.80;87.80
44044;BME280;29709;52.396;16.796;2023-02-12T02:15:00;103357.98;;;6.79;87.51
44044;BME280;29709;52.396;16.796;2023-02-12T02:32:05;103367.45;;;6.72;87.68
44044;BME280;29709;52.396;16.796;2023-02-12T02:35:13;103366.41;;;6.75;87.71
44044;BME280;29709;52.396;16.796;2023-02-12T02:38:45;103368.84;;;6.81;87.77
44044;BME280;29709;52.396;16.796;2023-02-12T02:41:47;103377.75;;;6.84;87.46
44044;BME280;29709;52.396;16.796;2023-02-12T02:45:21;103381.53;;;6.82;87.20
44044;BME280;29709;52.396;16.796;2023-02-12T02:48:34;103389.95;;;6.77;86.89
44044;BME280;29709;52.396;16.796;2023-02-12T02:51:44;103390.70;;;6.81;86.82
44044;BME280;29709;52.396;16.796;2023-02-12T02:54:51;103396.00;;;6.84;86.77
44044;BME280;29709;52.396;16.796;2023-02-12T02:58:00;103395.68;;;6.73;86.37
44044;BME280;29709;52.396;16.796;2023-02-12T03:01:16;103389.50;;;6.69;86.44
44044;BME280;29709;52.396;16.796;2023-02-12T03:04:23;103396.18;;;6.81;86.30
44044;BME280;29709;52.396;16.796;2023-02-12T03:07:37;103396.89;;;6.84;86.17
44044;BME280;29709;52.396;16.796;2023-02-12T03:10:46;103389.95;;;6.94;85.65
44044;BME280;29709;52.396;16.796;2023-02-12T03:14:02;103401.61;;;6.98;85.15
44044;BME280;29709;52.396;16.796;2023-02-12T03:17:08;103410.72;;;6.99;85.32
44044;BME280;29709;52.396;16.796;2023-02-12T03:20:22;103414.75;;;6.91;85.07
44044;BME280;29709;52.396;16.796;2023-02-12T03:23:30;103417.30;;;6.94;85.31
44044;BME280;29709;52.396;16.796;2023-02-12T03:26:43;103415.93;;;6.86;83.48
44044;BME280;29709;52.396;16.796;2023-02-12T03:29:48;103431.14;;;6.91;83.94
44044;BME280;29709;52.396;16.796;2023-02-12T03:39:58;103446.08;;;6.84;83.46
44044;BME280;29709;52.396;16.796;2023-02-12T03:46:24;103447.53;;;6.91;83.08
44044;BME280;29709;52.396;16.796;2023-02-12T03:52:45;103458.40;;;6.93;82.79
44044;BME280;29709;52.396;16.796;2023-02-12T03:56:22;103471.27;;;6.91;82.52
44044;BME280;29709;52.396;16.796;2023-02-12T03:59:27;103480.73;;;6.84;82.60
44044;BME280;29709;52.396;16.796;2023-02-12T04:02:31;103475.98;;;6.70;81.31
44044;BME280;29709;52.396;16.796;2023-02-12T04:05:35;103477.04;;;6.68;81.90
44044;BME280;29709;52.396;16.796;2023-02-12T04:08:38;103473.00;;;6.75;81.55
44044;BME280;29709;52.396;16.796;2023-02-12T04:18:24;103485.88;;;6.73;81.54
44044;BME280;29709;52.396;16.796;2023-02-12T04:31:25;103489.56;;;6.72;81.44
44044;BME280;29709;52.396;16.796;2023-02-12T04:37:54;103489.05;;;7.00;80.44
44044;BME280;29709;52.396;16.796;2023-02-12T04:41:04;103492.42;;;7.05;80.44
44044;BME280;29709;52.396;16.796;2023-02-12T04:44:18;103487.34;;;6.97;80.44
44044;BME280;29709;52.396;16.796;2023-02-12T04:47:22;103493.38;;;7.04;80.30
44044;BME280;29709;52.396;16.796;2023-02-12T04:50:51;103507.05;;;7.04;79.90
44044;BME280;29709;52.396;16.796;2023-02-12T04:53:54;103502.25;;;7.09;79.81
44044;BME280;29709;52.396;16.796;2023-02-12T04:56:57;103500.72;;;7.20;79.90
44044;BME280;29709;52.396;16.796;2023-02-12T05:00:00;103498.78;;;7.22;79.55
44044;BME280;29709;52.396;16.796;2023-02-12T05:03:04;103513.09;;;7.28;79.68
44044;BME280;29709;52.396;16.796;2023-02-12T05:06:08;103516.95;;;7.23;79.33
44044;BME280;29709;52.396;16.796;2023-02-12T05:09:17;103519.70;;;7.23;79.40
44044;BME280;29709;52.396;16.796;2023-02-12T05:12:20;103528.08;;;7.20;79.60
44044;BME280;29709;52.396;16.796;2023-02-12T05:15:24;103533.77;;;7.16;79.49
44044;BME280;29709;52.396;16.796;2023-02-12T05:18:53;103531.58;;;7.05;79.88
44044;BME280;29709;52.396;16.796;2023-02-12T05:21:56;103533.27;;;7.08;80.27
44044;BME280;29709;52.396;16.796;2023-02-12T05:25:00;103527.66;;;7.11;79.80
44044;BME280;29709;52.396;16.796;2023-02-12T05:28:03;103547.52;;;7.14;80.03
44044;BME280;29709;52.396;16.796;2023-02-12T05:31:08;103542.13;;;7.13;79.68
44044;BME280;29709;52.396;16.796;2023-02-12T05:34:12;103546.72;;;7.12;80.35
44044;BME280;29709;52.396;16.796;2023-02-12T05:37:15;103554.26;;;7.07;80.22
44044;BME280;29709;52.396;16.796;2023-02-12T05:40:18;103561.74;;;7.04;80.01
44044;BME280;29709;52.396;16.796;2023-02-12T05:43:21;103566.42;;;7.02;80.50
44044;BME280;29709;52.396;16.796;2023-02-12T05:46:24;103572.09;;;6.97;80.29
44044;BME280;29709;52.396;16.796;2023-02-12T05:49:53;103580.54;;;6.92;80.79
44044;BME280;29709;52.396;16.796;2023-02-12T05:52:59;103587.06;;;6.90;80.90
44044;BME280;29709;52.396;16.796;2023-02-12T05:59:21;103600.73;;;6.90;81.01
44044;BME280;29709;52.396;16.796;2023-02-12T06:02:25;103612.55;;;6.90;80.97
44044;BME280;29709;52.396;16.796;2023-02-12T06:05:30;103608.69;;;6.94;81.06
44044;BME280;29709;52.396;16.796;2023-02-12T06:08:33;103612.48;;;6.92;80.90
44044;BME280;29709;52.396;16.796;2023-02-12T06:12:04;103615.02;;;6.78;81.40
44044;BME280;29709;52.396;16.796;2023-02-12T06:15:07;103619.27;;;6.83;81.45
44044;BME280;29709;52.396;16.796;2023-02-12T06:18:10;103622.52;;;6.91;81.10
44044;BME280;29709;52.396;16.796;2023-02-12T06:21:15;103622.36;;;6.94;80.92
44044;BME280;29709;52.396;16.796;2023-02-12T06:24:18;103622.59;;;6.90;81.04
44044;BME280;29709;52.396;16.796;2023-02-12T06:27:21;103634.51;;;6.89;80.70
44044;BME280;29709;52.396;16.796;2023-02-12T06:30:25;103639.21;;;6.85;80.91
44044;BME280;29709;52.396;16.796;2023-02-12T06:33:28;103639.45;;;6.81;80.31
44044;BME280;29709;52.396;16.796;2023-02-12T06:36:32;103643.80;;;6.85;80.21
44044;BME280;29709;52.396;16.796;2023-02-12T06:39:35;103646.45;;;6.86;80.12
44044;BME280;29709;52.396;16.796;2023-02-12T06:43:04;103653.69;;;6.87;80.63
44044;BME280;29709;52.396;16.796;2023-02-12T06:46:08;103645.55;;;6.86;80.63
44044;BME280;29709;52.396;16.796;2023-02-12T06:49:12;103669.96;;;6.90;80.55
44044;BME280;29709;52.396;16.796;2023-02-12T06:52:16;103668.77;;;6.96;80.27
44044;BME280;29709;52.396;16.796;2023-02-12T06:55:19;103678.60;;;7.00;80.21
44044;BME280;29709;52.396;16.796;2023-02-12T06:58:23;103679.34;;;7.04;80.40
44044;BME280;29709;52.396;16.796;2023-02-12T07:01:27;103680.38;;;7.01;80.41
44044;BME280;29709;52.396;16.796;2023-02-12T07:04:31;103677.13;;;6.93;80.76
44044;BME280;29709;52.396;16.796;2023-02-12T07:07:34;103679.05;;;6.91;81.03
44044;BME280;29709;52.396;16.796;2023-02-12T07:10:37;103679.49;;;6.82;81.19
44044;BME280;29709;52.396;16.796;2023-02-12T07:14:06;103692.06;;;6.67;81.58
44044;BME280;29709;52.396;16.796;2023-02-12T07:17:09;103696.02;;;6.60;82.51
44044;BME280;29709;52.396;16.796;2023-02-12T07:20:12;103696.61;;;6.66;82.73
44044;BME280;29709;52.396;16.796;2023-02-12T07:23:16;103695.27;;;6.75;82.68
44044;BME280;29709;52.396;16.796;2023-02-12T07:26:20;103687.54;;;6.85;82.50
44044;BME280;29709;52.396;16.796;2023-02-12T07:29:23;103689.99;;;6.91;82.26
44044;BME280;29709;52.396;16.796;2023-02-12T07:32:26;103694.57;;;6.90;82.09
44044;BME280;29709;52.396;16.796;2023-02-12T07:35:29;103701.44;;;6.80;82.18
44044;BME280;29709;52.396;16.796;2023-02-12T07:38:33;103708.16;;;6.73;82.13
44044;BME280;29709;52.396;16.796;2023-02-12T07:42:09;103719.51;;;6.64;82.32
44044;BME280;29709;52.396;16.796;2023-02-12T07:45:16;103723.55;;;6.55;82.43
44044;BME280;29709;52.396;16.796;2023-02-12T07:48:19;103724.82;;;6.48;82.47
44044;BME280;29709;52.396;16.796;2023-02-12T07:51:23;103719.35;;;6.48;82.43
44044;BME280;29709;52.396;16.796;2023-02-12T07:54:26;103723.85;;;6.49;82.53
44044;BME280;29709;52.396;16.796;2023-02-12T07:57:29;103733.89;;;6.49;82.78
44044;BME280;29709;52.396;16.796;2023-02-12T08:00:32;103737.66;;;6.46;81.60
44044;BME280;29709;52.396;16.796;2023-02-12T08:03:36;103740.72;;;6.39;82.75
44044;BME280;29709;52.396;16.796;2023-02-12T08:06:41;103739.22;;;6.31;82.57
44044;BME280;29709;52.396;16.796;2023-02-12T08:10:12;103739.04;;;6.16;82.35
44044;BME280;29709;52.396;16.796;2023-02-12T08:13:16;103732.21;;;6.05;82.24
44044;BME280;29709;52.396;16.796;2023-02-12T08:16:21;103734.31;;;5.99;82.88
44044;BME280;29709;52.396;16.796;2023-02-12T08:19:25;103736.16;;;5.98;82.66
44044;BME280;29709;52.396;16.796;2023-02-12T08:22:28;103744.07;;;5.83;82.28
44044;BME280;29709;52.396;16.796;2023-02-12T08:25:31;103746.25;;;5.74;82.69
44044;BME280;29709;52.396;16.796;2023-02-12T08:28:35;103742.69;;;5.72;82.94
44044;BME280;29709;52.396;16.796;2023-02-12T08:31:42;103743.62;;;5.71;83.01
44044;BME280;29709;52.396;16.796;2023-02-12T08:34:45;103746.25;;;5.74;82.54
44044;BME280;29709;52.396;16.796;2023-02-12T08:38:15;103746.05;;;5.79;83.07
44044;BME280;29709;52.396;16.796;2023-02-12T08:41:23;103743.06;;;5.85;82.75
44044;BME280;29709;52.396;16.796;2023-02-12T08:44:27;103742.04;;;5.88;82.59
44044;BME280;29709;52.396;16.796;2023-02-12T08:47:30;103745.98;;;5.80;82.60
44044;BME280;29709;52.396;16.796;2023-02-12T08:50:35;103744.27;;;5.78;82.34
44044;BME280;29709;52.396;16.796;2023-02-12T08:53:41;103748.28;;;5.91;83.27
44044;BME280;29709;52.396;16.796;2023-02-12T08:56:44;103759.09;;;5.94;82.94
44044;BME280;29709;52.396;16.796;2023-02-12T08:59:48;103752.52;;;5.98;82.23
44044;BME280;29709;52.396;16.796;2023-02-12T09:02:51;103758.73;;;6.02;83.31
44044;BME280;29709;52.396;16.796;2023-02-12T09:06:21;103760.72;;;5.98;82.92
44044;BME280;29709;52.396;16.796;2023-02-12T09:09:25;103755.19;;;6.00;82.90
44044;BME280;29709;52.396;16.796;2023-02-12T09:12:28;103764.02;;;6.06;82.70
44044;BME280;29709;52.396;16.796;2023-02-12T09:15:36;103766.67;;;6.08;82.79
44044;BME280;29709;52.396;16.796;2023-02-12T09:18:40;103769.73;;;6.00;83.25
44044;BME280;29709;52.396;16.796;2023-02-12T09:21:44;103782.57;;;5.98;83.17
44044;BME280;29709;52.396;16.796;2023-02-12T09:24:47;103789.93;;;5.96;83.64
44044;BME280;29709;52.396;16.796;2023-02-12T09:27:50;103789.11;;;5.94;83.62
44044;BME280;29709;52.396;16.796;2023-02-12T09:30:53;103795.12;;;6.02;84.14
44044;BME280;29709;52.396;16.796;2023-02-12T09:34:22;103797.67;;;6.07;84.03
44044;BME280;29709;52.396;16.796;2023-02-12T09:37:25;103794.57;;;6.15;84.06
44044;BME280;29709;52.396;16.796;2023-02-12T09:47:07;103798.57;;;6.28;84.08
44044;BME280;29709;52.396;16.796;2023-02-12T09:50:47;103786.48;;;6.33;84.23
44044;BME280;29709;52.396;16.796;2023-02-12T09:54:02;103780.75;;;6.40;84.27
44044;BME280;29709;52.396;16.796;2023-02-12T09:57:19;103776.84;;;6.45;84.76
44044;BME280;29709;52.396;16.796;2023-02-12T10:00:26;103784.70;;;6.53;84.52
44044;BME280;29709;52.396;16.796;2023-02-12T10:03:58;103784.36;;;6.60;84.94
44044;BME280;29709;52.396;16.796;2023-02-12T10:07:10;103784.20;;;6.63;85.26
44044;BME280;29709;52.396;16.796;2023-02-12T10:23:36;103776.80;;;6.86;85.34
44044;BME280;29709;52.396;16.796;2023-02-12T10:26:45;103778.21;;;6.94;85.10
44044;BME280;29709;52.396;16.796;2023-02-12T10:29:51;103776.16;;;7.00;85.50
44044;BME280;29709;52.396;16.796;2023-02-12T10:33:26;103777.41;;;7.11;85.28
44044;BME280;29709;52.396;16.796;2023-02-12T10:36:40;103779.84;;;7.17;84.77
44044;BME280;29709;52.396;16.796;2023-02-12T10:39:49;103783.46;;;7.18;84.83
44044;BME280;29709;52.396;16.796;2023-02-12T10:42:57;103776.83;;;7.23;85.46
44044;BME280;29709;52.396;16.796;2023-02-12T10:46:01;103761.90;;;7.31;85.31
44044;BME280;29709;52.396;16.796;2023-02-12T10:49:05;103769.95;;;7.34;84.79
44044;BME280;29709;52.396;16.796;2023-02-12T10:52:42;103782.66;;;7.35;85.00
44044;BME280;29709;52.396;16.796;2023-02-12T10:55:47;103766.62;;;7.46;84.86
44044;BME280;29709;52.396;16.796;2023-02-12T10:58:54;103769.35;;;7.46;84.48
44044;BME280;29709;52.396;16.796;2023-02-12T11:01:57;103769.51;;;7.43;84.47
44044;BME280;29709;52.396;16.796;2023-02-12T11:11:30;103781.49;;;7.40;83.94
44044;BME280;29709;52.396;16.796;2023-02-12T11:14:38;103777.80;;;7.41;84.08
44044;BME280;29709;52.396;16.796;2023-02-12T11:18:09;103777.84;;;7.40;84.00
44044;BME280;29709;52.396;16.796;2023-02-12T11:21:21;103776.02;;;7.40;83.62
44044;BME280;29709;52.396;16.796;2023-02-12T11:24:31;103775.18;;;7.38;83.50
44044;BME280;29709;52.396;16.796;2023-02-12T11:27:34;103764.41;;;7.35;83.53
44044;BME280;29709;52.396;16.796;2023-02-12T11:37:17;103763.52;;;7.35;83.19
44044;BME280;29709;52.396;16.796;2023-02-12T11:40:26;103758.41;;;7.27;82.80
44044;BME280;29709;52.396;16.796;2023-02-12T11:43:32;103761.95;;;7.29;83.26
44044;BME280;29709;52.396;16.796;2023-02-12T11:46:50;103762.55;;;7.36;83.37
44044;BME280;29709;52.396;16.796;2023-02-12T11:50:06;103753.45;;;7.35;82.85
44044;BME280;29709;52.396;16.796;2023-02-12T11:56:24;103758.31;;;7.47;83.22
44044;BME280;29709;52.396;16.796;2023-02-12T11:59:37;103749.66;;;7.57;82.94
44044;BME280;29709;52.396;16.796;2023-02-12T12:02:48;103753.06;;;7.62;82.78
44044;BME280;29709;52.396;16.796;2023-02-12T12:06:03;103749.20;;;7.66;82.37
44044;BME280;29709;52.396;16.796;2023-02-12T12:09:18;103737.37;;;7.65;82.31
44044;BME280;29709;52.396;16.796;2023-02-12T12:15:44;103741.56;;;7.90;82.70
44044;BME280;29709;52.396;16.796;2023-02-12T12:19:11;103747.38;;;8.01;82.13
44044;BME280;29709;52.396;16.796;2023-02-12T12:25:47;103742.63;;;8.22;80.92
44044;BME280;29709;52.396;16.796;2023-02-12T12:28:57;103742.58;;;8.23;81.37
44044;BME280;29709;52.396;16.796;2023-02-12T12:32:04;103732.55;;;8.22;81.50
44044;BME280;29709;52.396;16.796;2023-02-12T12:35:10;103732.49;;;8.24;81.62
44044;BME280;29709;52.396;16.796;2023-02-12T12:38:30;103724.18;;;8.25;81.35
44044;BME280;29709;52.396;16.796;2023-02-12T12:41:40;103729.81;;;8.22;81.60
44044;BME280;29709;52.396;16.796;2023-02-12T12:48:18;103726.67;;;8.30;81.59
44044;BME280;29709;52.396;16.796;2023-02-12T12:54:48;103718.25;;;8.34;81.58
44044;BME280;29709;52.396;16.796;2023-02-12T12:58:00;103719.84;;;8.38;81.55
44044;BME280;29709;52.396;16.796;2023-02-12T13:07:48;103717.27;;;8.35;81.24
44044;BME280;29709;52.396;16.796;2023-02-12T13:11:01;103713.39;;;8.39;81.72
44044;BME280;29709;52.396;16.796;2023-02-12T13:14:32;103703.22;;;8.42;81.38
44044;BME280;29709;52.396;16.796;2023-02-12T13:24:03;103693.97;;;8.44;81.70
44044;BME280;29709;52.396;16.796;2023-02-12T13:30:36;103691.05;;;8.47;81.26
44044;BME280;29709;52.396;16.796;2023-02-12T13:33:42;103692.12;;;8.45;81.55
44044;BME280;29709;52.396;16.796;2023-02-12T13:36:48;103689.28;;;8.46;81.38
44044;BME280;29709;52.396;16.796;2023-02-12T13:40:22;103683.34;;;8.38;81.53
44044;BME280;29709;52.396;16.796;2023-02-12T14:04:23;103695.98;;;8.23;82.20
44044;BME280;29709;52.396;16.796;2023-02-12T14:10:48;103694.13;;;8.24;82.12
44044;BME280;29709;52.396;16.796;2023-02-12T14:14:01;103695.16;;;8.21;82.34
44044;BME280;29709;52.396;16.796;2023-02-12T14:20:27;103697.90;;;8.21;82.19
44044;BME280;29709;52.396;16.796;2023-02-12T14:23:30;103705.32;;;8.19;82.28
44044;BME280;29709;52.396;16.796;2023-02-12T14:26:59;103709.42;;;8.10;82.88
44044;BME280;29709;52.396;16.796;2023-02-12T14:33:22;103709.42;;;8.10;82.40
44044;BME280;29709;52.396;16.796;2023-02-12T14:36:36;103709.20;;;7.98;82.81
44044;BME280;29709;52.396;16.796;2023-02-12T14:39:45;103709.51;;;7.92;82.62
44044;BME280;29709;52.396;16.796;2023-02-12T14:49:45;103712.89;;;7.79;82.65
44044;BME280;29709;52.396;16.796;2023-02-12T14:53:03;103713.35;;;7.70;82.41
44044;BME280;29709;52.396;16.796;2023-02-12T14:56:08;103713.35;;;7.70;82.75
44044;BME280;29709;52.396;16.796;2023-02-12T14:59:17;103718.03;;;7.68;82.58
44044;BME280;29709;52.396;16.796;2023-02-12T15:02:28;103727.88;;;7.72;82.42
44044;BME280;29709;52.396;16.796;2023-02-12T15:05:41;103713.22;;;7.73;81.97
44044;BME280;29709;52.396;16.796;2023-02-12T15:08:52;103726.02;;;7.73;81.70
44044;BME280;29709;52.396;16.796;2023-02-12T15:12:10;103724.89;;;7.77;82.02
44044;BME280;29709;52.396;16.796;2023-02-12T15:18:41;103717.48;;;7.79;81.93
44044;BME280;29709;52.396;16.796;2023-02-12T15:21:43;103708.38;;;7.78;81.77
44044;BME280;29709;52.396;16.796;2023-02-12T15:24:48;103715.71;;;7.78;82.06
44044;BME280;29709;52.396;16.796;2023-02-12T15:28:26;103713.87;;;7.78;81.89
44044;BME280;29709;52.396;16.796;2023-02-12T15:31:36;103713.77;;;7.80;81.47
44044;BME280;29709;52.396;16.796;2023-02-12T15:34:40;103710.01;;;7.83;81.75
44044;BME280;29709;52.396;16.796;2023-02-12T15:37:46;103712.89;;;7.79;81.60
44044;BME280;29709;52.396;16.796;2023-02-12T15:40:57;103702.99;;;7.77;81.72
44044;BME280;29709;52.396;16.796;2023-02-12T15:47:14;103707.88;;;7.70;82.17
44044;BME280;29709;52.396;16.796;2023-02-12T15:50:20;103706.99;;;7.70;81.79
44044;BME280;29709;52.396;16.796;2023-02-12T15:53:49;103697.35;;;7.63;82.03
44044;BME280;29709;52.396;16.796;2023-02-12T15:56:53;103702.75;;;7.64;82.31
44044;BME280;29709;52.396;16.796;2023-02-12T16:00:08;103690.73;;;7.67;82.31
44044;BME280;29709;52.396;16.796;2023-02-12T16:03:22;103701.30;;;7.74;82.08
44044;BME280;29709;52.396;16.796;2023-02-12T16:06:29;103694.19;;;7.70;82.11
44044;BME280;29709;52.396;16.796;2023-02-12T16:09:36;103695.03;;;7.72;81.81
44044;BME280;29709;52.396;16.796;2023-02-12T16:13:05;103697.90;;;7.69;81.89
44044;BME280;29709;52.396;16.796;2023-02-12T16:16:20;103698.95;;;7.67;81.72
44044;BME280;29709;52.396;16.796;2023-02-12T16:19:30;103709.83;;;7.68;82.05
44044;BME280;29709;52.396;16.796;2023-02-12T16:22:40;103709.73;;;7.70;81.83
44044;BME280;29709;52.396;16.796;2023-02-12T16:25:52;103709.83;;;7.68;81.86
44044;BME280;29709;52.396;16.796;2023-02-12T16:28:56;103712.55;;;7.68;81.88
44044;BME280;29709;52.396;16.796;2023-02-12T16:32:32;103718.20;;;7.65;81.99
44044;BME280;29709;52.396;16.796;2023-02-12T16:35:36;103724.63;;;7.64;82.12
44044;BME280;29709;52.396;16.796;2023-02-12T16:38:45;103726.33;;;7.67;81.98
44044;BME280;29709;52.396;16.796;2023-02-12T16:41:54;103730.92;;;7.66;81.85
44044;BME280;29709;52.396;16.796;2023-02-12T16:44:58;103725.70;;;7.62;81.80
44044;BME280;29709;52.396;16.796;2023-02-12T16:51:24;103720.42;;;7.57;81.84
44044;BME280;29709;52.396;16.796;2023-02-12T16:54:31;103723.41;;;7.52;81.62
44044;BME280;29709;52.396;16.796;2023-02-12T16:57:35;103728.09;;;7.50;81.94
44044;BME280;29709;52.396;16.796;2023-02-12T17:01:03;103729.26;;;7.45;82.02
44044;BME280;29709;52.396;16.796;2023-02-12T17:04:09;103733.69;;;7.47;81.79
44044;BME280;29709;52.396;16.796;2023-02-12T17:07:21;103723.88;;;7.43;81.99
44044;BME280;29709;52.396;16.796;2023-02-12T17:10:24;103734.89;;;7.42;81.94
44044;BME280;29709;52.396;16.796;2023-02-12T17:13:27;103734.89;;;7.42;82.04
44044;BME280;29709;52.396;16.796;2023-02-12T17:16:31;103729.34;;;7.43;81.78
44044;BME280;29709;52.396;16.796;2023-02-12T17:19:34;103733.05;;;7.42;81.90
44044;BME280;29709;52.396;16.796;2023-02-12T17:22:37;103735.78;;;7.42;81.53
44044;BME280;29709;52.396;16.796;2023-02-12T17:26:07;103729.95;;;7.31;81.84
44044;BME280;29709;52.396;16.796;2023-02-12T17:29:13;103733.70;;;7.29;81.99
44044;BME280;29709;52.396;16.796;2023-02-12T17:32:17;103734.75;;;7.26;82.21
44044;BME280;29709;52.396;16.796;2023-02-12T17:35:20;103740.30;;;7.24;82.38
44044;BME280;29709;52.396;16.796;2023-02-12T17:38:23;103744.81;;;7.26;82.53
44044;BME280;29709;52.396;16.796;2023-02-12T17:41:27;103748.35;;;7.28;82.39
44044;BME280;29709;52.396;16.796;2023-02-12T17:44:30;103736.51;;;7.27;82.65
44044;BME280;29709;52.396;16.796;2023-02-12T17:47:33;103740.30;;;7.24;82.91
44044;BME280;29709;52.396;16.796;2023-02-12T17:50:42;103740.47;;;7.21;83.03
44044;BME280;29709;52.396;16.796;2023-02-12T17:54:11;103744.29;;;7.17;83.03
44044;BME280;29709;52.396;16.796;2023-02-12T17:57:17;103740.54;;;7.20;83.14
44044;BME280;29709;52.396;16.796;2023-02-12T18:00:21;103749.76;;;7.17;83.19
44044;BME280;29709;52.396;16.796;2023-02-12T18:03:25;103747.02;;;7.17;83.60
44044;BME280;29709;52.396;16.796;2023-02-12T18:06:29;103754.14;;;7.21;83.83
44044;BME280;29709;52.396;16.796;2023-02-12T18:09:35;103734.98;;;7.21;83.36
44044;BME280;29709;52.396;16.796;2023-02-12T18:12:41;103739.34;;;7.26;83.23
44044;BME280;29709;52.396;16.796;2023-02-12T18:15:44;103731.37;;;7.21;83.78
44044;BME280;29709;52.396;16.796;2023-02-12T18:19:15;103733.58;;;7.13;83.79
44044;BME280;29709;52.396;16.796;2023-02-12T18:22:19;103733.74;;;7.10;84.23
44044;BME280;29709;52.396;16.796;2023-02-12T18:25:23;103737.37;;;7.10;84.06
44044;BME280;29709;52.396;16.796;2023-02-12T18:28:26;103732.02;;;7.07;84.53
44044;BME280;29709;52.396;16.796;2023-02-12T18:31:30;103737.80;;;7.01;84.29
44044;BME280;29709;52.396;16.796;2023-02-12T18:34:33;103748.81;;;7.00;85.62
44044;BME280;29709;52.396;16.796;2023-02-12T18:37:36;103737.80;;;7.01;84.94
44044;BME280;29709;52.396;16.796;2023-02-12T18:40:43;103742.31;;;7.02;84.77
44044;BME280;29709;52.396;16.796;2023-02-12T18:43:46;103737.00;;;6.99;85.55
44044;BME280;29709;52.396;16.796;2023-02-12T18:47:18;103741.71;;;6.95;86.17
44044;BME280;29709;52.396;16.796;2023-02-12T18:50:22;103737.91;;;6.98;86.12
44044;BME280;29709;52.396;16.796;2023-02-12T18:53:25;103737.80;;;7.01;86.58
44044;BME280;29709;52.396;16.796;2023-02-12T18:56:30;103738.61;;;7.03;86.84
44044;BME280;29709;52.396;16.796;2023-02-12T18:59:35;103730.32;;;7.05;86.66
44044;BME280;29709;52.396;16.796;2023-02-12T19:02:38;103737.56;;;7.06;86.63
44044;BME280;29709;52.396;16.796;2023-02-12T19:05:42;103735.72;;;7.06;86.63
44044;BME280;29709;52.396;16.796;2023-02-12T19:08:45;103732.02;;;7.07;86.73
44044;BME280;29709;52.396;16.796;2023-02-12T19:11:51;103732.10;;;7.06;86.77
44044;BME280;29709;52.396;16.796;2023-02-12T19:15:21;103738.37;;;7.08;87.01
44044;BME280;29709;52.396;16.796;2023-02-12T19:18:24;103725.59;;;7.08;86.91